Terminal Aerodrome Forecast
Issued by NWS

Current Version | Previous Version | Text Only | Print | Product List | Glossary On
Versions: 1 2 3 4 5 6 7 8 9 10 11 12 13
000
FTUS44 KSJT 290520
TAFJCT
TAF
KJCT 290520Z 2906/3006 14011KT P6SM BKN250
     FM290800 17013G20KT P6SM VCSH BKN025
     FM291200 18007KT P6SM BKN015
     FM291400 22010KT P6SM SCT250
     FM292100 29014G20KT P6SM SCT250
     FM300200 32014G22KT P6SM VCSH SCT050 BKN100=

USA.gov is the U.S. government's official web portal to all federal, state and local government web resources and services.